Nogales International Airport Nogales US
ICAO: KOLS
IATA: OLS
Category: Medium
Scheduled Services: No

Elevation: 3955 ft
TransAlt. 18000 ft.

Airport Communications:
TUCSON APP DEP:125.1
ASOS:121.125
PRESCOTT RDO:122.4
CTAF/UNICOM:122.8

KOLS Zoom In..

If you have problems with the map follow the link
https://www.worldairports.se/pages/airport.php?
ICAO=KOLS

Runways:

(A) RW 03 length 7200 ft width 100 ft
---- / hdg 34

(B) RW 21 length 7200 ft width 100 ft
---- / hdg 214

Location; KOLS
Day. 19 / Time. 00.54 Zulu
* Altimeter: 30.16
* Temperature: 17° c. 62.6°f.
* Wind from: 300° Speed 04 kn.
Dewpoint: -01° c.
Visibility: 10 Statute Miles.
Clouds: Clear (automated report).

KOLS 190054Z AUTO 30004KT 10SM CLR 17/M01 A3016 RMK AO2 SLP190 T01671011


Wind From 300°
Speed 04 kn.

 
 
jpsmedia worldairports.se 2020   terms of use